Weather at Lifuka Island Airport

Public forecast

Using degrees Celsius for public forecast. Weather courtesy of forecast.io.

Current aviation weather report (METAR) for Lifuka Island Airport

Report is more than 6 hours old.

Retrieved 2022/01/27 03:00 UTC (8 hours ago):

NFTL 270300Z 08006KT 9999 FEW018 31/24 Q1009

Aviation forecast (TAF) for Lifuka Island Airport

Forecast is more than 12 hours old.

Retrieved 2018/02/21 17:36 UTC (4 years ago):

TAF NFTL 211605Z 2117/2208 12010KT 9999 SCT018